createdAt,value
2022-08-05T06:30:04.267Z,17.88
2022-08-05T07:10:09.900Z,18.70
2022-08-05T07:12:42.838Z,18.69
2022-08-05T08:24:13.792Z,19.65
2022-08-05T09:29:52.615Z,22.24
2022-08-05T09:43:40.820Z,22.66
2022-08-05T09:44:41.606Z,22.43
2022-08-05T09:47:55.474Z,22.22
2022-08-05T09:53:54.972Z,21.34
2022-08-05T10:06:30.928Z,21.79
2022-08-05T11:29:53.716Z,27.74
2022-08-05T13:28:25.187Z,26.39
2022-08-05T13:32:50.465Z,25.45
2022-08-05T13:42:55.675Z,24.39
2022-08-05T15:40:41.335Z,21.86
2022-08-05T15:56:25.350Z,22.44
2022-08-05T16:13:06.790Z,22.42
2022-08-05T16:52:33.892Z,20.00
2022-08-05T16:55:54.928Z,20.29
2022-08-05T17:31:56.873Z,19.33
2022-08-05T17:32:56.077Z,19.15
2022-08-05T17:43:50.487Z,18.86
2022-08-05T17:50:28.733Z,18.74
2022-08-05T18:00:04.937Z,19.07
2022-08-05T18:45:54.256Z,17.28
2022-08-05T19:15:58.997Z,16.12
2022-08-05T19:33:35.578Z,15.11
2022-08-05T20:47:31.698Z,12.79
2022-08-05T21:12:11.014Z,12.19
2022-08-05T21:21:14.471Z,11.92
2022-08-05T21:47:24.061Z,11.32
2022-08-05T21:48:06.582Z,11.34
2022-08-05T21:48:39.962Z,11.41
2022-08-05T21:50:00.473Z,11.37
2022-08-05T21:50:03.836Z,11.40
2022-08-05T21:50:39.046Z,11.46
2022-08-05T21:52:15.972Z,11.24
2022-08-05T21:52:27.829Z,11.18
2022-08-05T21:52:54.042Z,11.27
2022-08-05T21:53:30.860Z,11.21
2022-08-05T21:54:05.652Z,11.20
2022-08-05T21:54:41.416Z,11.19
2022-08-05T21:55:13.366Z,11.22
2022-08-05T21:56:06.162Z,11.33
2022-08-05T21:56:37.181Z,11.32
2022-08-05T21:57:31.559Z,11.25
2022-08-05T21:58:04.288Z,11.24
2022-08-05T21:58:36.776Z,11.24
2022-08-05T21:59:24.163Z,11.25
2022-08-05T22:00:10.655Z,11.22
2022-08-05T22:00:51.075Z,11.22
2022-08-05T22:01:24.171Z,11.25
2022-08-05T22:01:56.628Z,11.21
2022-08-05T22:02:28.147Z,11.11
2022-08-05T22:03:00.463Z,11.06
2022-08-05T22:03:48.462Z,11.10
2022-08-05T22:04:20.949Z,11.14
2022-08-05T22:04:58.704Z,11.09
2022-08-05T22:05:30.319Z,11.14
2022-08-05T22:06:22.401Z,11.08
2022-08-05T22:06:55.004Z,10.99
2022-08-05T22:07:54.244Z,10.89
2022-08-05T22:08:23.996Z,10.70
2022-08-05T22:08:56.004Z,10.73
2022-08-05T22:09:45.753Z,10.73
2022-08-05T22:10:18.490Z,10.68
2022-08-05T22:11:01.574Z,10.72
2022-08-05T22:11:34.766Z,10.69
2022-08-05T22:12:10.514Z,10.65
2022-08-05T22:12:50.588Z,10.66
2022-08-05T22:14:20.000Z,10.69
2022-08-05T22:14:33.698Z,10.65
2022-08-05T22:15:11.285Z,10.59
2022-08-05T22:16:02.156Z,10.64
2022-08-05T22:16:41.827Z,10.61
2022-08-05T22:17:22.826Z,10.62
2022-08-05T22:17:59.792Z,10.61
2022-08-05T22:18:32.026Z,10.62
2022-08-05T22:19:03.701Z,10.61
2022-08-05T22:20:00.541Z,10.61
2022-08-05T22:20:39.126Z,10.58
2022-08-05T22:21:11.399Z,10.58
2022-08-05T22:21:51.100Z,10.61
2022-08-05T22:22:28.192Z,10.65
2022-08-05T22:23:21.614Z,10.67
2022-08-05T22:24:13.319Z,10.74
2022-08-05T22:25:27.746Z,10.85
2022-08-05T22:26:21.823Z,10.69
2022-08-05T22:27:14.065Z,10.66
2022-08-05T22:28:10.225Z,10.68
2022-08-05T22:28:42.928Z,10.69
2022-08-05T22:29:15.480Z,10.61
2022-08-05T22:29:47.644Z,10.60
2022-08-05T22:30:19.161Z,10.58
2022-08-05T22:30:57.213Z,10.55
2022-08-05T22:31:30.420Z,10.50
2022-08-05T22:32:02.778Z,10.39
2022-08-05T22:32:35.060Z,10.40
2022-08-05T22:33:15.771Z,10.37
2022-08-05T22:33:57.195Z,10.28
2022-08-05T22:34:33.215Z,10.26
2022-08-05T22:35:05.737Z,10.25
2022-08-05T22:35:48.865Z,10.23
2022-08-05T22:36:24.077Z,10.19
2022-08-05T22:36:56.722Z,10.24
2022-08-05T22:37:58.242Z,10.27
2022-08-05T22:38:21.721Z,10.28
2022-08-05T22:38:57.268Z,10.25
2022-08-05T22:39:35.998Z,10.23
2022-08-05T22:40:08.467Z,10.27
2022-08-05T22:40:40.618Z,10.36
2022-08-05T22:41:12.374Z,10.40
2022-08-05T22:42:10.518Z,10.51
2022-08-05T22:42:41.183Z,10.55
2022-08-05T22:43:36.674Z,10.46
2022-08-05T22:44:09.293Z,10.38
2022-08-05T22:44:42.773Z,10.34
2022-08-05T22:45:26.427Z,10.37
2022-08-05T22:45:57.907Z,10.41
2022-08-05T22:46:29.945Z,10.42
2022-08-05T22:47:05.822Z,10.33
2022-08-05T22:47:38.041Z,10.30
2022-08-05T22:48:22.202Z,10.23
2022-08-05T22:48:58.804Z,10.27
2022-08-05T22:50:19.697Z,10.29
2022-08-05T22:50:27.793Z,10.34
2022-08-05T22:50:59.524Z,10.37
2022-08-05T22:52:04.937Z,10.41
2022-08-05T22:52:30.185Z,10.51
2022-08-05T22:53:04.276Z,10.56
2022-08-05T22:53:41.446Z,10.47
2022-08-05T22:54:13.307Z,10.47
2022-08-05T22:54:48.848Z,10.53
2022-08-05T22:55:22.218Z,10.56
2022-08-05T22:55:57.164Z,10.31
2022-08-05T22:56:31.418Z,10.34
2022-08-05T22:57:04.748Z,10.37
2022-08-05T22:57:37.213Z,10.42
2022-08-05T22:58:11.625Z,10.43
2022-08-05T22:58:46.084Z,10.34
2022-08-05T22:59:44.031Z,10.29
2022-08-05T23:00:09.619Z,10.20
2022-08-05T23:00:41.254Z,10.21
2022-08-05T23:01:12.733Z,10.27
2022-08-05T23:02:04.178Z,10.34
2022-08-05T23:02:40.096Z,10.43
2022-08-05T23:03:18.369Z,10.43
2022-08-05T23:04:09.697Z,10.48
2022-08-05T23:04:41.679Z,10.39
2022-08-05T23:05:23.083Z,10.24
2022-08-05T23:05:55.781Z,10.19
2022-08-05T23:06:27.226Z,10.16
2022-08-05T23:07:00.578Z,10.08
2022-08-05T23:07:33.000Z,10.01
2022-08-05T23:08:17.041Z,10.07
2022-08-05T23:08:50.439Z,10.06
2022-08-05T23:09:27.486Z,9.92
2022-08-05T23:10:16.385Z,9.97
2022-08-05T23:10:54.922Z,9.98
2022-08-05T23:11:27.592Z,10.00
2022-08-05T23:12:02.255Z,9.97
2022-08-05T23:12:33.867Z,9.96
2022-08-05T23:13:08.287Z,10.06
2022-08-05T23:13:39.932Z,10.09
2022-08-05T23:14:11.907Z,10.13
2022-08-05T23:14:46.830Z,10.24
2022-08-05T23:15:18.375Z,10.26
2022-08-05T23:15:50.490Z,10.24
2022-08-05T23:16:44.160Z,10.27
2022-08-05T23:17:34.267Z,10.20
2022-08-05T23:18:11.652Z,10.04
2022-08-05T23:18:43.851Z,10.07
2022-08-05T23:19:25.919Z,10.17
2022-08-05T23:19:58.878Z,10.11
2022-08-05T23:20:32.114Z,10.15
2022-08-05T23:21:03.792Z,10.20
2022-08-05T23:21:43.018Z,10.28
2022-08-05T23:22:23.661Z,10.25
2022-08-05T23:22:59.792Z,10.26
2022-08-05T23:23:33.838Z,10.17
2022-08-05T23:24:11.317Z,10.09
2022-08-05T23:24:48.495Z,10.03
2022-08-05T23:25:53.469Z,10.02
2022-08-05T23:26:15.190Z,10.06
2022-08-05T23:26:46.889Z,10.09
2022-08-05T23:27:20.390Z,10.09
2022-08-05T23:28:00.596Z,9.91
2022-08-05T23:28:32.627Z,9.85
2022-08-05T23:29:04.220Z,9.86
2022-08-05T23:29:36.857Z,9.95
2022-08-05T23:30:10.799Z,9.87
2022-08-05T23:30:43.881Z,9.88
2022-08-05T23:31:24.538Z,9.83
2022-08-05T23:31:56.229Z,9.74
2022-08-05T23:32:28.470Z,9.73
2022-08-05T23:33:00.281Z,9.72
2022-08-05T23:34:05.071Z,9.73
2022-08-05T23:34:24.452Z,9.79
2022-08-05T23:34:58.429Z,9.86
2022-08-05T23:35:34.362Z,9.94
2022-08-05T23:36:06.195Z,9.94
2022-08-05T23:36:44.833Z,9.89
2022-08-05T23:37:16.558Z,9.87
2022-08-05T23:37:48.105Z,9.90
2022-08-05T23:38:19.682Z,9.91
2022-08-05T23:38:51.292Z,9.86
2022-08-05T23:39:32.553Z,9.80
2022-08-05T23:40:18.283Z,9.72
2022-08-05T23:40:58.765Z,9.83
2022-08-05T23:41:37.268Z,9.86
2022-08-05T23:42:14.530Z,9.83
2022-08-05T23:42:47.466Z,9.79
2022-08-05T23:44:04.568Z,9.71
2022-08-05T23:44:16.913Z,9.69
2022-08-05T23:44:54.403Z,9.71
2022-08-05T23:45:26.178Z,9.73
2022-08-05T23:45:57.738Z,9.75
2022-08-05T23:46:29.706Z,9.76
2022-08-05T23:47:02.526Z,9.72
2022-08-05T23:47:47.968Z,9.67
2022-08-05T23:48:19.971Z,9.68
2022-08-05T23:49:00.014Z,9.61
2022-08-05T23:49:34.088Z,9.63
2022-08-05T23:50:11.200Z,9.53
2022-08-05T23:50:44.465Z,9.52
2022-08-05T23:51:16.652Z,9.53
2022-08-05T23:52:07.064Z,9.49
2022-08-05T23:52:49.477Z,9.45
2022-08-05T23:53:22.355Z,9.41
2022-08-05T23:53:54.644Z,9.41
2022-08-05T23:54:38.366Z,9.39
2022-08-05T23:55:10.931Z,9.37
2022-08-05T23:55:44.488Z,9.37
2022-08-05T23:56:20.223Z,9.40
2022-08-05T23:57:04.225Z,9.31
2022-08-05T23:57:36.704Z,9.24
2022-08-05T23:58:08.441Z,9.19
2022-08-05T23:59:01.035Z,9.17
